Brisas del Sur, Puerto Rico
Current Conditions -  °F | °C
As of 8:56 AM on Thursday 27 Nov 2014 (Local Time) from TJSJ Reporting Station
Scattered Clouds Scattered Clouds  
Wind Chill: 80°   Ceiling: Unl
Heat Index: 83°   Visibility: 10mi
Dew Point: 70°   Wind: 3mph
Humidity: 71%   Direction: 120°ESE
Pressure: 30.02"   Gusts: NA
Location:  18.0561°N, 66.5063°W
Report Text: TJSJ 271256Z 12003KT 10SM FEW035 SCT070 27/21 A3002 RMK AO2 SLP164 T02670211
Loading
Personal Weather Stations






























Interactive Weather Map New forecast layout! Learn more

10-Day Weather Forecast

Advertisements
Track Severe Weather on mobile